sensor_id;sensor_type;location;lat;lon;timestamp;P1;durP1;ratioP1;P2;durP2;ratioP2
2404;SDS011;1213;43.206;27.922;2023-11-22T00:00:41;7.13;;;6.40;;
2404;SDS011;1213;43.206;27.922;2023-11-22T00:03:07;7.17;;;5.73;;
2404;SDS011;1213;43.206;27.922;2023-11-22T00:05:32;6.37;;;5.77;;
2404;SDS011;1213;43.206;27.922;2023-11-22T00:07:58;5.60;;;5.10;;
2404;SDS011;1213;43.206;27.922;2023-11-22T00:10:23;8.47;;;6.87;;
2404;SDS011;1213;43.206;27.922;2023-11-22T00:12:49;15.10;;;6.00;;
2404;SDS011;1213;43.206;27.922;2023-11-22T00:15:14;7.60;;;5.17;;
2404;SDS011;1213;43.206;27.922;2023-11-22T00:17:43;7.17;;;5.13;;
2404;SDS011;1213;43.206;27.922;2023-11-22T00:20:09;9.60;;;5.93;;
2404;SDS011;1213;43.206;27.922;2023-11-22T00:22:35;7.63;;;5.57;;
2404;SDS011;1213;43.206;27.922;2023-11-22T00:25:00;8.50;;;4.90;;
2404;SDS011;1213;43.206;27.922;2023-11-22T00:27:27;8.87;;;5.10;;
2404;SDS011;1213;43.206;27.922;2023-11-22T00:29:53;7.43;;;4.87;;
2404;SDS011;1213;43.206;27.922;2023-11-22T00:32:18;5.80;;;5.20;;
2404;SDS011;1213;43.206;27.922;2023-11-22T00:34:44;5.83;;;5.20;;
2404;SDS011;1213;43.206;27.922;2023-11-22T00:37:10;6.30;;;5.60;;
2404;SDS011;1213;43.206;27.922;2023-11-22T00:39:36;5.70;;;4.47;;
2404;SDS011;1213;43.206;27.922;2023-11-22T00:42:02;9.60;;;5.17;;
2404;SDS011;1213;43.206;27.922;2023-11-22T00:44:29;7.20;;;5.53;;
2404;SDS011;1213;43.206;27.922;2023-11-22T00:46:54;6.00;;;5.30;;
2404;SDS011;1213;43.206;27.922;2023-11-22T00:49:22;6.23;;;5.63;;
2404;SDS011;1213;43.206;27.922;2023-11-22T00:51:47;9.63;;;5.73;;
2404;SDS011;1213;43.206;27.922;2023-11-22T00:54:13;7.63;;;5.50;;
2404;SDS011;1213;43.206;27.922;2023-11-22T00:56:40;6.27;;;5.40;;
2404;SDS011;1213;43.206;27.922;2023-11-22T00:59:05;9.10;;;6.43;;
2404;SDS011;1213;43.206;27.922;2023-11-22T01:01:31;5.70;;;5.10;;
2404;SDS011;1213;43.206;27.922;2023-11-22T01:03:57;6.87;;;5.10;;
2404;SDS011;1213;43.206;27.922;2023-11-22T01:06:23;6.63;;;5.20;;
2404;SDS011;1213;43.206;27.922;2023-11-22T01:08:49;9.63;;;5.80;;
2404;SDS011;1213;43.206;27.922;2023-11-22T01:11:14;6.80;;;5.33;;
2404;SDS011;1213;43.206;27.922;2023-11-22T01:13:40;7.93;;;5.20;;
2404;SDS011;1213;43.206;27.922;2023-11-22T01:16:07;7.70;;;6.13;;
2404;SDS011;1213;43.206;27.922;2023-11-22T01:18:33;10.90;;;6.20;;
2404;SDS011;1213;43.206;27.922;2023-11-22T01:20:59;6.90;;;5.77;;
2404;SDS011;1213;43.206;27.922;2023-11-22T01:23:25;7.43;;;5.10;;
2404;SDS011;1213;43.206;27.922;2023-11-22T01:25:50;8.10;;;6.10;;
2404;SDS011;1213;43.206;27.922;2023-11-22T01:28:16;12.67;;;6.10;;
2404;SDS011;1213;43.206;27.922;2023-11-22T01:30:44;17.23;;;5.63;;
2404;SDS011;1213;43.206;27.922;2023-11-22T01:33:14;7.30;;;5.50;;
2404;SDS011;1213;43.206;27.922;2023-11-22T01:35:40;6.57;;;5.93;;
2404;SDS011;1213;43.206;27.922;2023-11-22T01:38:05;11.57;;;6.40;;
2404;SDS011;1213;43.206;27.922;2023-11-22T01:40:31;7.20;;;5.93;;
2404;SDS011;1213;43.206;27.922;2023-11-22T01:42:57;6.60;;;5.57;;
2404;SDS011;1213;43.206;27.922;2023-11-22T01:45:23;9.50;;;5.97;;
2404;SDS011;1213;43.206;27.922;2023-11-22T01:47:48;10.57;;;6.80;;
2404;SDS011;1213;43.206;27.922;2023-11-22T01:50:15;8.57;;;5.30;;
2404;SDS011;1213;43.206;27.922;2023-11-22T01:52:41;7.47;;;6.07;;
2404;SDS011;1213;43.206;27.922;2023-11-22T01:55:08;8.50;;;6.80;;
2404;SDS011;1213;43.206;27.922;2023-11-22T01:57:34;15.50;;;7.10;;
2404;SDS011;1213;43.206;27.922;2023-11-22T02:00:00;9.03;;;6.27;;
2404;SDS011;1213;43.206;27.922;2023-11-22T02:02:29;8.83;;;6.17;;
2404;SDS011;1213;43.206;27.922;2023-11-22T02:04:55;7.93;;;5.23;;
2404;SDS011;1213;43.206;27.922;2023-11-22T02:07:21;7.80;;;6.00;;
2404;SDS011;1213;43.206;27.922;2023-11-22T02:09:47;7.07;;;5.67;;
2404;SDS011;1213;43.206;27.922;2023-11-22T02:12:12;7.93;;;6.20;;
2404;SDS011;1213;43.206;27.922;2023-11-22T02:14:38;6.20;;;5.60;;
2404;SDS011;1213;43.206;27.922;2023-11-22T02:17:03;6.93;;;5.63;;
2404;SDS011;1213;43.206;27.922;2023-11-22T02:19:29;7.60;;;5.90;;
2404;SDS011;1213;43.206;27.922;2023-11-22T02:21:58;8.20;;;6.70;;
2404;SDS011;1213;43.206;27.922;2023-11-22T02:24:24;7.40;;;6.67;;
2404;SDS011;1213;43.206;27.922;2023-11-22T02:26:49;7.20;;;5.37;;
2404;SDS011;1213;43.206;27.922;2023-11-22T02:29:15;8.57;;;6.13;;
2404;SDS011;1213;43.206;27.922;2023-11-22T02:31:41;8.50;;;6.73;;
2404;SDS011;1213;43.206;27.922;2023-11-22T02:34:10;8.80;;;6.40;;
2404;SDS011;1213;43.206;27.922;2023-11-22T02:36:35;10.10;;;6.77;;
2404;SDS011;1213;43.206;27.922;2023-11-22T02:39:01;12.70;;;6.93;;
2404;SDS011;1213;43.206;27.922;2023-11-22T02:41:27;8.73;;;6.63;;
2404;SDS011;1213;43.206;27.922;2023-11-22T02:43:54;7.23;;;6.20;;
2404;SDS011;1213;43.206;27.922;2023-11-22T02:46:21;11.83;;;6.60;;
2404;SDS011;1213;43.206;27.922;2023-11-22T02:48:46;9.60;;;7.20;;
2404;SDS011;1213;43.206;27.922;2023-11-22T02:51:11;8.23;;;5.93;;
2404;SDS011;1213;43.206;27.922;2023-11-22T02:53:39;12.13;;;6.90;;
2404;SDS011;1213;43.206;27.922;2023-11-22T02:56:08;9.80;;;6.80;;
2404;SDS011;1213;43.206;27.922;2023-11-22T02:58:34;9.77;;;6.13;;
2404;SDS011;1213;43.206;27.922;2023-11-22T03:01:01;7.33;;;6.60;;
2404;SDS011;1213;43.206;27.922;2023-11-22T03:03:26;9.30;;;6.80;;
2404;SDS011;1213;43.206;27.922;2023-11-22T03:05:52;11.57;;;7.50;;
2404;SDS011;1213;43.206;27.922;2023-11-22T03:08:17;9.40;;;7.47;;
2404;SDS011;1213;43.206;27.922;2023-11-22T03:10:43;16.53;;;9.40;;
2404;SDS011;1213;43.206;27.922;2023-11-22T03:13:09;9.20;;;7.53;;
2404;SDS011;1213;43.206;27.922;2023-11-22T03:15:34;9.30;;;7.70;;
2404;SDS011;1213;43.206;27.922;2023-11-22T03:18:00;14.63;;;7.73;;
2404;SDS011;1213;43.206;27.922;2023-11-22T03:20:26;10.90;;;8.17;;
2404;SDS011;1213;43.206;27.922;2023-11-22T03:22:52;6.80;;;5.83;;
2404;SDS011;1213;43.206;27.922;2023-11-22T03:25:18;9.80;;;7.13;;
2404;SDS011;1213;43.206;27.922;2023-11-22T03:27:43;9.83;;;8.17;;
2404;SDS011;1213;43.206;27.922;2023-11-22T03:30:09;8.23;;;6.10;;
2404;SDS011;1213;43.206;27.922;2023-11-22T03:32:39;11.47;;;7.10;;
2404;SDS011;1213;43.206;27.922;2023-11-22T03:35:08;12.53;;;7.83;;
2404;SDS011;1213;43.206;27.922;2023-11-22T03:37:34;9.20;;;6.40;;
2404;SDS011;1213;43.206;27.922;2023-11-22T03:39:59;8.63;;;7.13;;
2404;SDS011;1213;43.206;27.922;2023-11-22T03:42:25;13.73;;;6.93;;
2404;SDS011;1213;43.206;27.922;2023-11-22T03:44:52;11.33;;;7.23;;
2404;SDS011;1213;43.206;27.922;2023-11-22T03:47:18;7.83;;;6.87;;
2404;SDS011;1213;43.206;27.922;2023-11-22T03:49:44;10.83;;;7.57;;
2404;SDS011;1213;43.206;27.922;2023-11-22T03:52:10;8.20;;;6.87;;
2404;SDS011;1213;43.206;27.922;2023-11-22T03:54:36;11.33;;;8.70;;
2404;SDS011;1213;43.206;27.922;2023-11-22T03:57:02;9.10;;;7.40;;
2404;SDS011;1213;43.206;27.922;2023-11-22T03:59:28;10.13;;;7.63;;
2404;SDS011;1213;43.206;27.922;2023-11-22T04:01:54;9.10;;;6.60;;
2404;SDS011;1213;43.206;27.922;2023-11-22T04:04:20;18.73;;;7.57;;
2404;SDS011;1213;43.206;27.922;2023-11-22T04:06:45;7.90;;;6.30;;
2404;SDS011;1213;43.206;27.922;2023-11-22T04:09:11;9.77;;;7.60;;
2404;SDS011;1213;43.206;27.922;2023-11-22T04:11:37;12.37;;;6.90;;
2404;SDS011;1213;43.206;27.922;2023-11-22T04:14:03;10.20;;;7.27;;
2404;SDS011;1213;43.206;27.922;2023-11-22T04:16:29;7.10;;;6.40;;
2404;SDS011;1213;43.206;27.922;2023-11-22T04:18:54;15.20;;;8.07;;
2404;SDS011;1213;43.206;27.922;2023-11-22T04:21:20;9.87;;;7.87;;
2404;SDS011;1213;43.206;27.922;2023-11-22T04:23:45;9.90;;;8.37;;
2404;SDS011;1213;43.206;27.922;2023-11-22T04:26:11;13.80;;;9.27;;
2404;SDS011;1213;43.206;27.922;2023-11-22T04:28:36;14.90;;;11.80;;
2404;SDS011;1213;43.206;27.922;2023-11-22T04:31:02;17.67;;;12.57;;
2404;SDS011;1213;43.206;27.922;2023-11-22T04:33:29;28.43;;;14.73;;
2404;SDS011;1213;43.206;27.922;2023-11-22T04:35:54;28.53;;;15.60;;
2404;SDS011;1213;43.206;27.922;2023-11-22T04:38:20;27.20;;;16.20;;
2404;SDS011;1213;43.206;27.922;2023-11-22T04:40:45;24.83;;;15.50;;
2404;SDS011;1213;43.206;27.922;2023-11-22T04:43:11;30.67;;;16.77;;
2404;SDS011;1213;43.206;27.922;2023-11-22T04:45:37;22.17;;;15.90;;
2404;SDS011;1213;43.206;27.922;2023-11-22T04:48:03;24.90;;;16.43;;
2404;SDS011;1213;43.206;27.922;2023-11-22T04:50:29;22.50;;;15.70;;
2404;SDS011;1213;43.206;27.922;2023-11-22T04:52:55;23.60;;;15.50;;
2404;SDS011;1213;43.206;27.922;2023-11-22T04:55:21;30.13;;;15.10;;
2404;SDS011;1213;43.206;27.922;2023-11-22T04:57:48;26.93;;;16.73;;
2404;SDS011;1213;43.206;27.922;2023-11-22T05:00:14;33.70;;;17.97;;
2404;SDS011;1213;43.206;27.922;2023-11-22T05:02:39;26.90;;;17.50;;
2404;SDS011;1213;43.206;27.922;2023-11-22T05:05:05;26.43;;;16.07;;
2404;SDS011;1213;43.206;27.922;2023-11-22T05:07:31;25.83;;;18.93;;
2404;SDS011;1213;43.206;27.922;2023-11-22T05:09:57;24.10;;;17.43;;
2404;SDS011;1213;43.206;27.922;2023-11-22T05:12:22;27.90;;;18.07;;
2404;SDS011;1213;43.206;27.922;2023-11-22T05:14:48;28.43;;;17.53;;
2404;SDS011;1213;43.206;27.922;2023-11-22T05:17:14;32.00;;;17.13;;
2404;SDS011;1213;43.206;27.922;2023-11-22T05:19:40;35.37;;;22.00;;
2404;SDS011;1213;43.206;27.922;2023-11-22T05:22:05;33.73;;;18.20;;
2404;SDS011;1213;43.206;27.922;2023-11-22T05:24:31;52.17;;;39.53;;
2404;SDS011;1213;43.206;27.922;2023-11-22T05:26:56;37.17;;;26.90;;
2404;SDS011;1213;43.206;27.922;2023-11-22T05:29:22;32.63;;;21.57;;
2404;SDS011;1213;43.206;27.922;2023-11-22T05:31:47;36.03;;;19.83;;
2404;SDS011;1213;43.206;27.922;2023-11-22T05:34:13;33.03;;;18.50;;
2404;SDS011;1213;43.206;27.922;2023-11-22T05:36:39;34.03;;;19.40;;
2404;SDS011;1213;43.206;27.922;2023-11-22T05:39:05;32.30;;;19.77;;
2404;SDS011;1213;43.206;27.922;2023-11-22T05:41:32;27.23;;;19.17;;
2404;SDS011;1213;43.206;27.922;2023-11-22T05:43:57;46.40;;;22.73;;
2404;SDS011;1213;43.206;27.922;2023-11-22T05:46:23;50.87;;;21.87;;
2404;SDS011;1213;43.206;27.922;2023-11-22T05:48:53;35.67;;;20.47;;
2404;SDS011;1213;43.206;27.922;2023-11-22T05:51:21;42.90;;;23.00;;
2404;SDS011;1213;43.206;27.922;2023-11-22T05:53:47;35.70;;;24.27;;
2404;SDS011;1213;43.206;27.922;2023-11-22T05:56:13;34.70;;;23.80;;
2404;SDS011;1213;43.206;27.922;2023-11-22T05:58:41;34.33;;;23.57;;
2404;SDS011;1213;43.206;27.922;2023-11-22T06:01:07;32.90;;;24.60;;
2404;SDS011;1213;43.206;27.922;2023-11-22T06:03:34;32.20;;;21.93;;
2404;SDS011;1213;43.206;27.922;2023-11-22T06:06:00;34.73;;;22.20;;
2404;SDS011;1213;43.206;27.922;2023-11-22T06:08:26;32.20;;;21.57;;
2404;SDS011;1213;43.206;27.922;2023-11-22T06:10:51;40.13;;;23.47;;
2404;SDS011;1213;43.206;27.922;2023-11-22T06:13:18;31.60;;;21.13;;
2404;SDS011;1213;43.206;27.922;2023-11-22T06:15:44;40.70;;;24.87;;
2404;SDS011;1213;43.206;27.922;2023-11-22T06:18:10;35.50;;;23.10;;
2404;SDS011;1213;43.206;27.922;2023-11-22T06:20:36;34.43;;;23.60;;
2404;SDS011;1213;43.206;27.922;2023-11-22T06:23:01;34.80;;;22.87;;
2404;SDS011;1213;43.206;27.922;2023-11-22T06:25:27;34.97;;;20.07;;
2404;SDS011;1213;43.206;27.922;2023-11-22T06:27:52;27.43;;;20.33;;
2404;SDS011;1213;43.206;27.922;2023-11-22T06:30:18;26.07;;;18.93;;
2404;SDS011;1213;43.206;27.922;2023-11-22T06:32:44;29.83;;;19.10;;
2404;SDS011;1213;43.206;27.922;2023-11-22T06:35:10;41.03;;;21.07;;
2404;SDS011;1213;43.206;27.922;2023-11-22T06:37:39;36.47;;;19.27;;
2404;SDS011;1213;43.206;27.922;2023-11-22T06:40:05;34.20;;;21.30;;
2404;SDS011;1213;43.206;27.922;2023-11-22T06:42:31;36.97;;;21.37;;
2404;SDS011;1213;43.206;27.922;2023-11-22T06:44:58;26.97;;;18.40;;
2404;SDS011;1213;43.206;27.922;2023-11-22T06:47:25;29.73;;;18.37;;
2404;SDS011;1213;43.206;27.922;2023-11-22T06:49:52;29.10;;;18.93;;
2404;SDS011;1213;43.206;27.922;2023-11-22T06:52:19;29.77;;;17.53;;
2404;SDS011;1213;43.206;27.922;2023-11-22T06:54:44;23.33;;;17.20;;
2404;SDS011;1213;43.206;27.922;2023-11-22T06:57:10;33.13;;;19.07;;
2404;SDS011;1213;43.206;27.922;2023-11-22T06:59:35;22.50;;;16.23;;
2404;SDS011;1213;43.206;27.922;2023-11-22T07:02:01;31.93;;;17.70;;
2404;SDS011;1213;43.206;27.922;2023-11-22T07:04:27;27.90;;;17.87;;
2404;SDS011;1213;43.206;27.922;2023-11-22T07:06:54;25.20;;;16.87;;
2404;SDS011;1213;43.206;27.922;2023-11-22T07:09:19;28.93;;;19.30;;
2404;SDS011;1213;43.206;27.922;2023-11-22T07:11:45;32.10;;;16.47;;
2404;SDS011;1213;43.206;27.922;2023-11-22T07:14:10;29.10;;;16.33;;
2404;SDS011;1213;43.206;27.922;2023-11-22T07:16:36;29.03;;;17.20;;
2404;SDS011;1213;43.206;27.922;2023-11-22T07:19:02;31.63;;;16.90;;
2404;SDS011;1213;43.206;27.922;2023-11-22T07:21:30;32.30;;;17.57;;
2404;SDS011;1213;43.206;27.922;2023-11-22T07:23:56;22.77;;;18.43;;
2404;SDS011;1213;43.206;27.922;2023-11-22T07:26:21;33.00;;;17.63;;
2404;SDS011;1213;43.206;27.922;2023-11-22T07:28:47;28.07;;;18.43;;
2404;SDS011;1213;43.206;27.922;2023-11-22T07:31:12;30.97;;;18.30;;
2404;SDS011;1213;43.206;27.922;2023-11-22T07:33:39;37.03;;;20.53;;
2404;SDS011;1213;43.206;27.922;2023-11-22T07:36:05;38.10;;;26.73;;
2404;SDS011;1213;43.206;27.922;2023-11-22T07:38:32;47.67;;;30.47;;
2404;SDS011;1213;43.206;27.922;2023-11-22T07:40:59;44.87;;;26.87;;
2404;SDS011;1213;43.206;27.922;2023-11-22T07:43:25;45.63;;;27.83;;
2404;SDS011;1213;43.206;27.922;2023-11-22T07:45:50;39.93;;;24.80;;
2404;SDS011;1213;43.206;27.922;2023-11-22T07:48:16;46.07;;;25.00;;
2404;SDS011;1213;43.206;27.922;2023-11-22T07:50:42;39.43;;;27.90;;
2404;SDS011;1213;43.206;27.922;2023-11-22T07:53:14;39.30;;;28.07;;
2404;SDS011;1213;43.206;27.922;2023-11-22T07:55:39;35.17;;;23.93;;
2404;SDS011;1213;43.206;27.922;2023-11-22T07:58:07;44.63;;;26.40;;
2404;SDS011;1213;43.206;27.922;2023-11-22T08:00:33;37.60;;;24.60;;
2404;SDS011;1213;43.206;27.922;2023-11-22T08:03:03;44.63;;;24.80;;
2404;SDS011;1213;43.206;27.922;2023-11-22T08:05:29;28.43;;;19.73;;
2404;SDS011;1213;43.206;27.922;2023-11-22T08:07:59;21.93;;;9.90;;
2404;SDS011;1213;43.206;27.922;2023-11-22T08:10:32;15.57;;;8.00;;
2404;SDS011;1213;43.206;27.922;2023-11-22T08:12:57;8.87;;;5.57;;
2404;SDS011;1213;43.206;27.922;2023-11-22T08:15:23;19.00;;;15.20;;
2404;SDS011;1213;43.206;27.922;2023-11-22T08:17:49;25.57;;;15.70;;
2404;SDS011;1213;43.206;27.922;2023-11-22T08:20:14;30.20;;;19.77;;
2404;SDS011;1213;43.206;27.922;2023-11-22T08:22:43;33.60;;;21.37;;
2404;SDS011;1213;43.206;27.922;2023-11-22T08:25:10;27.73;;;21.03;;
2404;SDS011;1213;43.206;27.922;2023-11-22T08:27:39;22.60;;;17.80;;
2404;SDS011;1213;43.206;27.922;2023-11-22T08:30:08;24.40;;;17.10;;
2404;SDS011;1213;43.206;27.922;2023-11-22T08:32:41;22.07;;;16.10;;
2404;SDS011;1213;43.206;27.922;2023-11-22T08:35:13;26.67;;;16.30;;
2404;SDS011;1213;43.206;27.922;2023-11-22T08:37:40;18.13;;;12.30;;
2404;SDS011;1213;43.206;27.922;2023-11-22T08:40:07;24.30;;;13.77;;
2404;SDS011;1213;43.206;27.922;2023-11-22T08:42:36;28.70;;;15.93;;
2404;SDS011;1213;43.206;27.922;2023-11-22T08:45:05;20.30;;;14.90;;
2404;SDS011;1213;43.206;27.922;2023-11-22T08:47:30;25.57;;;16.27;;
2404;SDS011;1213;43.206;27.922;2023-11-22T08:49:56;33.80;;;18.17;;
2404;SDS011;1213;43.206;27.922;2023-11-22T08:52:22;35.30;;;16.70;;
2404;SDS011;1213;43.206;27.922;2023-11-22T08:54:48;22.57;;;16.17;;
2404;SDS011;1213;43.206;27.922;2023-11-22T08:57:15;27.67;;;16.43;;
2404;SDS011;1213;43.206;27.922;2023-11-22T08:59:40;31.90;;;16.27;;
2404;SDS011;1213;43.206;27.922;2023-11-22T09:02:06;25.93;;;13.53;;
2404;SDS011;1213;43.206;27.922;2023-11-22T09:04:37;13.50;;;11.10;;
2404;SDS011;1213;43.206;27.922;2023-11-22T09:07:03;15.03;;;10.97;;
2404;SDS011;1213;43.206;27.922;2023-11-22T09:09:30;17.90;;;11.20;;
2404;SDS011;1213;43.206;27.922;2023-11-22T09:11:57;18.40;;;10.90;;
2404;SDS011;1213;43.206;27.922;2023-11-22T09:14:23;20.93;;;11.93;;
2404;SDS011;1213;43.206;27.922;2023-11-22T09:16:49;17.00;;;9.90;;
2404;SDS011;1213;43.206;27.922;2023-11-22T09:19:20;13.60;;;7.80;;
2404;SDS011;1213;43.206;27.922;2023-11-22T09:21:49;12.33;;;8.23;;
2404;SDS011;1213;43.206;27.922;2023-11-22T09:24:16;12.30;;;8.60;;
2404;SDS011;1213;43.206;27.922;2023-11-22T09:26:41;18.30;;;9.40;;
2404;SDS011;1213;43.206;27.922;2023-11-22T09:29:10;11.50;;;7.77;;
2404;SDS011;1213;43.206;27.922;2023-11-22T09:31:39;11.13;;;8.63;;
2404;SDS011;1213;43.206;27.922;2023-11-22T09:34:07;8.97;;;7.00;;
2404;SDS011;1213;43.206;27.922;2023-11-22T09:36:33;10.30;;;8.37;;
2404;SDS011;1213;43.206;27.922;2023-11-22T09:39:02;9.50;;;7.10;;
2404;SDS011;1213;43.206;27.922;2023-11-22T09:41:37;14.83;;;6.97;;
2404;SDS011;1213;43.206;27.922;2023-11-22T09:44:04;17.00;;;8.77;;
2404;SDS011;1213;43.206;27.922;2023-11-22T09:46:30;16.27;;;9.37;;
2404;SDS011;1213;43.206;27.922;2023-11-22T09:48:59;8.67;;;7.03;;
2404;SDS011;1213;43.206;27.922;2023-11-22T09:51:28;9.50;;;6.90;;
2404;SDS011;1213;43.206;27.922;2023-11-22T09:53:58;11.40;;;7.07;;
2404;SDS011;1213;43.206;27.922;2023-11-22T09:56:30;12.20;;;7.00;;
2404;SDS011;1213;43.206;27.922;2023-11-22T09:58:58;13.20;;;7.80;;
2404;SDS011;1213;43.206;27.922;2023-11-22T10:01:25;8.17;;;6.90;;
2404;SDS011;1213;43.206;27.922;2023-11-22T10:03:54;8.50;;;7.00;;
2404;SDS011;1213;43.206;27.922;2023-11-22T10:06:19;10.63;;;8.77;;
2404;SDS011;1213;43.206;27.922;2023-11-22T10:08:45;17.90;;;8.33;;
2404;SDS011;1213;43.206;27.922;2023-11-22T10:11:15;14.20;;;8.57;;
2404;SDS011;1213;43.206;27.922;2023-11-22T10:13:43;12.37;;;9.83;;
2404;SDS011;1213;43.206;27.922;2023-11-22T10:16:11;12.40;;;8.93;;
2404;SDS011;1213;43.206;27.922;2023-11-22T10:18:46;11.80;;;9.50;;
2404;SDS011;1213;43.206;27.922;2023-11-22T10:21:30;24.40;;;13.50;;
2404;SDS011;1213;43.206;27.922;2023-11-22T10:23:57;17.70;;;9.30;;
2404;SDS011;1213;43.206;27.922;2023-11-22T10:26:26;13.67;;;9.53;;
2404;SDS011;1213;43.206;27.922;2023-11-22T10:28:53;13.20;;;11.20;;
2404;SDS011;1213;43.206;27.922;2023-11-22T10:31:20;38.53;;;23.20;;
2404;SDS011;1213;43.206;27.922;2023-11-22T10:33:48;14.37;;;10.77;;
2404;SDS011;1213;43.206;27.922;2023-11-22T10:36:14;18.43;;;10.13;;
2404;SDS011;1213;43.206;27.922;2023-11-22T10:38:41;12.93;;;11.30;;
2404;SDS011;1213;43.206;27.922;2023-11-22T10:41:11;13.33;;;9.73;;
2404;SDS011;1213;43.206;27.922;2023-11-22T10:43:38;11.83;;;8.97;;
2404;SDS011;1213;43.206;27.922;2023-11-22T10:46:04;14.37;;;10.87;;
2404;SDS011;1213;43.206;27.922;2023-11-22T10:48:31;11.40;;;9.73;;
2404;SDS011;1213;43.206;27.922;2023-11-22T10:51:01;12.97;;;9.67;;
2404;SDS011;1213;43.206;27.922;2023-11-22T10:53:39;11.30;;;8.80;;
2404;SDS011;1213;43.206;27.922;2023-11-22T10:56:14;17.73;;;9.70;;
2404;SDS011;1213;43.206;27.922;2023-11-22T10:58:51;15.47;;;10.20;;
2404;SDS011;1213;43.206;27.922;2023-11-22T11:01:20;14.27;;;12.03;;
2404;SDS011;1213;43.206;27.922;2023-11-22T11:04:03;9.93;;;7.80;;
2404;SDS011;1213;43.206;27.922;2023-11-22T11:06:37;9.70;;;8.70;;
2404;SDS011;1213;43.206;27.922;2023-11-22T11:09:03;14.80;;;8.30;;
2404;SDS011;1213;43.206;27.922;2023-11-22T11:11:37;8.50;;;7.60;;
2404;SDS011;1213;43.206;27.922;2023-11-22T11:14:04;12.20;;;6.93;;
2404;SDS011;1213;43.206;27.922;2023-11-22T11:16:33;12.60;;;5.87;;
2404;SDS011;1213;43.206;27.922;2023-11-22T11:19:13;8.83;;;5.40;;
2404;SDS011;1213;43.206;27.922;2023-11-22T11:21:42;10.37;;;7.17;;
2404;SDS011;1213;43.206;27.922;2023-11-22T11:24:08;5.73;;;4.67;;
2404;SDS011;1213;43.206;27.922;2023-11-22T11:26:34;6.70;;;5.47;;
2404;SDS011;1213;43.206;27.922;2023-11-22T11:29:02;5.83;;;4.77;;
2404;SDS011;1213;43.206;27.922;2023-11-22T11:31:33;4.80;;;3.73;;
2404;SDS011;1213;43.206;27.922;2023-11-22T11:34:07;4.93;;;3.90;;
2404;SDS011;1213;43.206;27.922;2023-11-22T11:36:33;10.40;;;4.63;;
2404;SDS011;1213;43.206;27.922;2023-11-22T11:39:02;6.27;;;4.23;;
2404;SDS011;1213;43.206;27.922;2023-11-22T11:41:34;5.60;;;4.80;;
2404;SDS011;1213;43.206;27.922;2023-11-22T11:44:02;6.17;;;4.57;;
2404;SDS011;1213;43.206;27.922;2023-11-22T11:46:29;7.60;;;4.17;;
2404;SDS011;1213;43.206;27.922;2023-11-22T11:48:56;9.40;;;4.63;;
2404;SDS011;1213;43.206;27.922;2023-11-22T11:51:25;6.90;;;5.10;;
2404;SDS011;1213;43.206;27.922;2023-11-22T11:53:53;9.20;;;4.40;;
2404;SDS011;1213;43.206;27.922;2023-11-22T11:56:19;7.60;;;4.30;;
2404;SDS011;1213;43.206;27.922;2023-11-22T11:58:45;6.50;;;4.60;;
2404;SDS011;1213;43.206;27.922;2023-11-22T12:01:12;7.03;;;5.43;;
2404;SDS011;1213;43.206;27.922;2023-11-22T12:03:38;3.90;;;3.47;;
2404;SDS011;1213;43.206;27.922;2023-11-22T12:06:06;3.87;;;3.53;;
2404;SDS011;1213;43.206;27.922;2023-11-22T12:08:33;5.83;;;3.93;;
2404;SDS011;1213;43.206;27.922;2023-11-22T12:11:02;4.93;;;3.17;;
2404;SDS011;1213;43.206;27.922;2023-11-22T12:13:30;5.23;;;3.87;;
2404;SDS011;1213;43.206;27.922;2023-11-22T12:15:56;5.73;;;3.07;;
2404;SDS011;1213;43.206;27.922;2023-11-22T12:18:22;4.57;;;3.20;;
2404;SDS011;1213;43.206;27.922;2023-11-22T12:20:55;7.03;;;3.33;;
2404;SDS011;1213;43.206;27.922;2023-11-22T12:23:22;6.40;;;4.50;;
2404;SDS011;1213;43.206;27.922;2023-11-22T12:25:48;4.30;;;2.37;;
2404;SDS011;1213;43.206;27.922;2023-11-22T12:28:18;3.83;;;2.90;;
2404;SDS011;1213;43.206;27.922;2023-11-22T12:30:46;6.70;;;5.17;;
2404;SDS011;1213;43.206;27.922;2023-11-22T12:33:13;2.50;;;2.30;;
2404;SDS011;1213;43.206;27.922;2023-11-22T12:35:42;2.60;;;2.30;;
2404;SDS011;1213;43.206;27.922;2023-11-22T12:38:09;4.43;;;4.03;;
2404;SDS011;1213;43.206;27.922;2023-11-22T12:40:35;3.30;;;3.00;;
2404;SDS011;1213;43.206;27.922;2023-11-22T12:43:05;3.27;;;2.83;;
2404;SDS011;1213;43.206;27.922;2023-11-22T12:45:31;4.47;;;4.07;;
2404;SDS011;1213;43.206;27.922;2023-11-22T12:48:04;5.20;;;3.30;;
2404;SDS011;1213;43.206;27.922;2023-11-22T12:50:45;4.17;;;3.23;;
2404;SDS011;1213;43.206;27.922;2023-11-22T12:53:11;4.83;;;3.17;;
2404;SDS011;1213;43.206;27.922;2023-11-22T12:55:41;7.50;;;3.47;;
2404;SDS011;1213;43.206;27.922;2023-11-22T12:58:08;6.97;;;3.67;;
2404;SDS011;1213;43.206;27.922;2023-11-22T13:00:34;4.23;;;3.00;;
2404;SDS011;1213;43.206;27.922;2023-11-22T13:03:00;67.73;;;44.93;;
2404;SDS011;1213;43.206;27.922;2023-11-22T13:05:25;45.47;;;29.30;;
2404;SDS011;1213;43.206;27.922;2023-11-22T13:07:51;13.63;;;9.23;;
2404;SDS011;1213;43.206;27.922;2023-11-22T13:10:18;5.57;;;3.93;;
2404;SDS011;1213;43.206;27.922;2023-11-22T13:12:44;6.37;;;5.00;;
2404;SDS011;1213;43.206;27.922;2023-11-22T13:15:11;9.33;;;5.13;;
2404;SDS011;1213;43.206;27.922;2023-11-22T13:17:37;5.67;;;4.17;;
2404;SDS011;1213;43.206;27.922;2023-11-22T13:20:06;5.00;;;3.47;;
2404;SDS011;1213;43.206;27.922;2023-11-22T13:22:39;3.37;;;3.03;;
2404;SDS011;1213;43.206;27.922;2023-11-22T13:25:05;4.50;;;3.50;;
2404;SDS011;1213;43.206;27.922;2023-11-22T13:27:31;3.97;;;3.63;;
2404;SDS011;1213;43.206;27.922;2023-11-22T13:29:56;5.00;;;4.47;;
2404;SDS011;1213;43.206;27.922;2023-11-22T13:32:23;3.60;;;3.30;;
2404;SDS011;1213;43.206;27.922;2023-11-22T13:34:51;8.13;;;3.20;;
2404;SDS011;1213;43.206;27.922;2023-11-22T13:37:23;6.53;;;5.93;;
2404;SDS011;1213;43.206;27.922;2023-11-22T13:39:49;6.00;;;4.13;;
2404;SDS011;1213;43.206;27.922;2023-11-22T13:42:14;5.80;;;4.20;;
2404;SDS011;1213;43.206;27.922;2023-11-22T13:44:40;5.63;;;4.17;;
2404;SDS011;1213;43.206;27.922;2023-11-22T13:47:15;6.90;;;4.43;;
2404;SDS011;1213;43.206;27.922;2023-11-22T13:49:41;4.30;;;3.80;;
2404;SDS011;1213;43.206;27.922;2023-11-22T13:52:08;4.00;;;3.60;;
2404;SDS011;1213;43.206;27.922;2023-11-22T13:54:33;3.97;;;3.53;;
2404;SDS011;1213;43.206;27.922;2023-11-22T13:57:00;7.90;;;5.43;;
2404;SDS011;1213;43.206;27.922;2023-11-22T13:59:25;11.37;;;4.00;;
2404;SDS011;1213;43.206;27.922;2023-11-22T14:01:51;4.17;;;3.77;;
2404;SDS011;1213;43.206;27.922;2023-11-22T14:04:16;4.93;;;4.03;;
2404;SDS011;1213;43.206;27.922;2023-11-22T14:06:42;4.03;;;3.33;;
2404;SDS011;1213;43.206;27.922;2023-11-22T14:09:07;4.20;;;3.80;;
2404;SDS011;1213;43.206;27.922;2023-11-22T14:11:34;3.80;;;3.50;;
2404;SDS011;1213;43.206;27.922;2023-11-22T14:14:01;3.50;;;3.20;;
2404;SDS011;1213;43.206;27.922;2023-11-22T14:16:28;3.70;;;3.30;;
2404;SDS011;1213;43.206;27.922;2023-11-22T14:18:55;4.23;;;3.33;;
2404;SDS011;1213;43.206;27.922;2023-11-22T14:21:21;5.13;;;4.70;;
2404;SDS011;1213;43.206;27.922;2023-11-22T14:23:47;4.40;;;3.90;;
2404;SDS011;1213;43.206;27.922;2023-11-22T14:26:13;3.20;;;3.00;;
2404;SDS011;1213;43.206;27.922;2023-11-22T14:28:38;4.27;;;3.77;;
2404;SDS011;1213;43.206;27.922;2023-11-22T14:31:05;4.83;;;2.87;;
2404;SDS011;1213;43.206;27.922;2023-11-22T14:33:32;8.10;;;4.90;;
2404;SDS011;1213;43.206;27.922;2023-11-22T14:35:58;4.00;;;3.70;;
2404;SDS011;1213;43.206;27.922;2023-11-22T14:38:23;6.60;;;3.97;;
2404;SDS011;1213;43.206;27.922;2023-11-22T14:40:49;3.03;;;2.73;;
2404;SDS011;1213;43.206;27.922;2023-11-22T14:43:16;5.83;;;5.30;;
2404;SDS011;1213;43.206;27.922;2023-11-22T14:45:41;5.00;;;4.10;;
2404;SDS011;1213;43.206;27.922;2023-11-22T14:48:07;3.03;;;2.80;;